Portada
METAR-TAF:

METAR-TAF

Aeropuertos :

Aeropuerto de Vitoria

Vitoria, España

latitud: 42-53N, longitud: 002-43W, altitud: 513 m

Observación

El informe se hizo hace 21 minutos, a las 08:00 UTC
Viento calma
Temperatura 0°C
Humedad 93%
Presión 1032 hPa
Visibilidad: 3200 m
neblina

METAR: LEVT 220800Z 00000KT 3200 BR NSC M00/M01 Q1032

Hora: 09:21 (08:21 UTC)

Pronóstico

El informe se hizo hace 3 horas y 21 minutos, a las 05:00 UTC
Pronóstico válido del 22 a las 06 UTC al 23 a las 06 UTC
Viento 5 kt del oeste-suroeste
Visibilidad: 8000 m
Probabilidad 30% :
Temporalmente
del 22 a las 06 UTC al 22 a las 09 UTC
Visibilidad: 3000 m
neblina
Probabilidad 30% :
Temporalmente
del 22 a las 06 UTC al 22 a las 09 UTC
Visibilidad: 1500 m
niebla en bancos

TAF: LEVT 220500Z 2206/2306 24005KT 8000 NSC TX19/2215Z TNM02/2206Z PROB30 TEMPO 2206/2209 3000 BR PROB30 TEMPO 2206/2209 1500 BCFG

Observaciones y pronósticos meteorológicos de más de 4000 aeropuertos (mensajes METAR y TAF).

Los puntos amarillos y rojos representan las estaciones disponibles.

Ponga el ratón en el punto deseado para ver el nombre de la estación.

Haga clic para ver las observaciones y los pronósticos meteorológicos.

Para cambiar el mapa : haga clic en los botones verdes con una cruz de color negro para hacer un zoom, en el botón verde con un guión para alejar o en las flechas verdes para mapas adyacentes.


METAR-TAF: